sensor_id;sensor_type;location;lat;lon;timestamp;P1;durP1;ratioP1;P2;durP2;ratioP2
11471;SDS011;47430;50.808;4.388;2022-10-16T00:02:01;2.67;;;1.40;;
11471;SDS011;47430;50.808;4.388;2022-10-16T00:04:27;2.35;;;1.33;;
11471;SDS011;47430;50.808;4.388;2022-10-16T00:06:53;1.60;;;1.33;;
11471;SDS011;47430;50.808;4.388;2022-10-16T00:09:19;4.32;;;1.60;;
11471;SDS011;47430;50.808;4.388;2022-10-16T00:11:45;4.72;;;1.33;;
11471;SDS011;47430;50.808;4.388;2022-10-16T00:14:13;1.20;;;1.10;;
11471;SDS011;47430;50.808;4.388;2022-10-16T00:16:41;2.42;;;1.40;;
11471;SDS011;47430;50.808;4.388;2022-10-16T00:19:07;4.20;;;1.20;;
11471;SDS011;47430;50.808;4.388;2022-10-16T00:21:33;1.80;;;1.25;;
11471;SDS011;47430;50.808;4.388;2022-10-16T00:24:00;2.22;;;1.40;;
11471;SDS011;47430;50.808;4.388;2022-10-16T00:26:28;1.85;;;1.30;;
11471;SDS011;47430;50.808;4.388;2022-10-16T00:28:55;3.50;;;1.20;;
11471;SDS011;47430;50.808;4.388;2022-10-16T00:31:21;2.67;;;1.30;;
11471;SDS011;47430;50.808;4.388;2022-10-16T00:33:48;2.45;;;1.50;;
11471;SDS011;47430;50.808;4.388;2022-10-16T00:36:16;2.00;;;1.60;;
11471;SDS011;47430;50.808;4.388;2022-10-16T00:38:42;1.38;;;1.25;;
11471;SDS011;47430;50.808;4.388;2022-10-16T00:41:10;4.60;;;1.58;;
11471;SDS011;47430;50.808;4.388;2022-10-16T00:43:38;1.60;;;1.23;;
11471;SDS011;47430;50.808;4.388;2022-10-16T00:46:07;2.83;;;1.40;;
11471;SDS011;47430;50.808;4.388;2022-10-16T00:48:35;1.17;;;1.08;;
11471;SDS011;47430;50.808;4.388;2022-10-16T00:51:01;4.75;;;1.35;;
11471;SDS011;47430;50.808;4.388;2022-10-16T00:53:27;7.22;;;1.48;;
11471;SDS011;47430;50.808;4.388;2022-10-16T00:55:53;1.65;;;1.50;;
11471;SDS011;47430;50.808;4.388;2022-10-16T00:58:19;1.42;;;1.33;;
11471;SDS011;47430;50.808;4.388;2022-10-16T01:00:46;6.10;;;1.58;;
11471;SDS011;47430;50.808;4.388;2022-10-16T01:03:22;2.35;;;1.63;;
11471;SDS011;47430;50.808;4.388;2022-10-16T01:05:51;1.85;;;1.67;;
11471;SDS011;47430;50.808;4.388;2022-10-16T01:08:27;2.15;;;1.45;;
11471;SDS011;47430;50.808;4.388;2022-10-16T01:10:57;2.53;;;1.50;;
11471;SDS011;47430;50.808;4.388;2022-10-16T01:13:30;3.45;;;1.60;;
11471;SDS011;47430;50.808;4.388;2022-10-16T01:21:10;1.33;;;1.23;;
11471;SDS011;47430;50.808;4.388;2022-10-16T01:23:43;3.15;;;1.52;;
11471;SDS011;47430;50.808;4.388;2022-10-16T01:28:50;2.20;;;1.25;;
11471;SDS011;47430;50.808;4.388;2022-10-16T01:31:18;5.82;;;1.40;;
11471;SDS011;47430;50.808;4.388;2022-10-16T01:33:46;1.63;;;1.50;;
11471;SDS011;47430;50.808;4.388;2022-10-16T01:36:14;1.55;;;1.40;;
11471;SDS011;47430;50.808;4.388;2022-10-16T01:38:42;3.53;;;1.50;;
11471;SDS011;47430;50.808;4.388;2022-10-16T01:41:16;2.88;;;1.58;;
11471;SDS011;47430;50.808;4.388;2022-10-16T01:43:49;2.30;;;1.50;;
11471;SDS011;47430;50.808;4.388;2022-10-16T01:46:18;1.30;;;1.20;;
11471;SDS011;47430;50.808;4.388;2022-10-16T01:48:45;2.53;;;1.27;;
11471;SDS011;47430;50.808;4.388;2022-10-16T01:51:12;2.22;;;1.42;;
11471;SDS011;47430;50.808;4.388;2022-10-16T01:53:39;4.63;;;1.48;;
11471;SDS011;47430;50.808;4.388;2022-10-16T01:56:07;4.47;;;1.65;;
11471;SDS011;47430;50.808;4.388;2022-10-16T01:58:35;2.17;;;1.80;;
11471;SDS011;47430;50.808;4.388;2022-10-16T02:01:03;1.92;;;1.45;;
11471;SDS011;47430;50.808;4.388;2022-10-16T02:03:30;1.70;;;1.58;;
11471;SDS011;47430;50.808;4.388;2022-10-16T02:05:57;2.47;;;1.60;;
11471;SDS011;47430;50.808;4.388;2022-10-16T02:08:24;1.95;;;1.63;;
11471;SDS011;47430;50.808;4.388;2022-10-16T02:10:53;1.63;;;1.50;;
11471;SDS011;47430;50.808;4.388;2022-10-16T02:13:24;1.60;;;1.50;;
11471;SDS011;47430;50.808;4.388;2022-10-16T02:15:52;2.25;;;1.80;;
11471;SDS011;47430;50.808;4.388;2022-10-16T02:18:18;5.25;;;2.17;;
11471;SDS011;47430;50.808;4.388;2022-10-16T02:26:09;1.92;;;1.60;;
11471;SDS011;47430;50.808;4.388;2022-10-16T02:28:39;2.22;;;2.00;;
11471;SDS011;47430;50.808;4.388;2022-10-16T02:31:07;2.92;;;1.50;;
11471;SDS011;47430;50.808;4.388;2022-10-16T02:33:34;3.03;;;1.60;;
11471;SDS011;47430;50.808;4.388;2022-10-16T02:36:01;2.90;;;1.80;;
11471;SDS011;47430;50.808;4.388;2022-10-16T02:38:27;4.13;;;1.77;;
11471;SDS011;47430;50.808;4.388;2022-10-16T02:40:55;4.50;;;2.00;;
11471;SDS011;47430;50.808;4.388;2022-10-16T02:43:21;4.63;;;1.83;;
11471;SDS011;47430;50.808;4.388;2022-10-16T02:45:48;2.50;;;1.73;;
11471;SDS011;47430;50.808;4.388;2022-10-16T02:48:14;8.38;;;1.80;;
11471;SDS011;47430;50.808;4.388;2022-10-16T02:50:40;2.58;;;1.80;;
11471;SDS011;47430;50.808;4.388;2022-10-16T02:53:06;2.80;;;1.60;;
11471;SDS011;47430;50.808;4.388;2022-10-16T02:55:32;3.85;;;1.90;;
11471;SDS011;47430;50.808;4.388;2022-10-16T02:57:58;1.77;;;1.58;;
11471;SDS011;47430;50.808;4.388;2022-10-16T03:00:24;2.03;;;1.80;;
11471;SDS011;47430;50.808;4.388;2022-10-16T03:02:50;4.07;;;1.77;;
11471;SDS011;47430;50.808;4.388;2022-10-16T03:05:16;4.22;;;2.13;;
11471;SDS011;47430;50.808;4.388;2022-10-16T03:07:42;4.00;;;1.77;;
11471;SDS011;47430;50.808;4.388;2022-10-16T03:10:08;5.90;;;2.00;;
11471;SDS011;47430;50.808;4.388;2022-10-16T03:12:34;3.55;;;2.28;;
11471;SDS011;47430;50.808;4.388;2022-10-16T03:15:00;2.03;;;1.80;;
11471;SDS011;47430;50.808;4.388;2022-10-16T03:17:26;4.80;;;1.80;;
11471;SDS011;47430;50.808;4.388;2022-10-16T03:19:52;4.30;;;1.77;;
11471;SDS011;47430;50.808;4.388;2022-10-16T03:22:19;7.10;;;2.30;;
11471;SDS011;47430;50.808;4.388;2022-10-16T03:24:45;2.58;;;2.05;;
11471;SDS011;47430;50.808;4.388;2022-10-16T03:27:11;3.33;;;2.10;;
11471;SDS011;47430;50.808;4.388;2022-10-16T03:29:37;2.90;;;1.90;;
11471;SDS011;47430;50.808;4.388;2022-10-16T03:32:03;7.47;;;2.25;;
11471;SDS011;47430;50.808;4.388;2022-10-16T03:34:29;4.40;;;2.28;;
11471;SDS011;47430;50.808;4.388;2022-10-16T03:36:55;7.05;;;2.40;;
11471;SDS011;47430;50.808;4.388;2022-10-16T03:39:21;2.55;;;1.88;;
11471;SDS011;47430;50.808;4.388;2022-10-16T03:41:47;3.47;;;1.77;;
11471;SDS011;47430;50.808;4.388;2022-10-16T03:44:13;2.20;;;1.80;;
11471;SDS011;47430;50.808;4.388;2022-10-16T03:46:39;2.40;;;1.90;;
11471;SDS011;47430;50.808;4.388;2022-10-16T03:49:05;6.40;;;2.30;;
11471;SDS011;47430;50.808;4.388;2022-10-16T03:51:31;3.33;;;2.05;;
11471;SDS011;47430;50.808;4.388;2022-10-16T03:53:57;3.28;;;2.47;;
11471;SDS011;47430;50.808;4.388;2022-10-16T03:56:23;2.42;;;1.80;;
11471;SDS011;47430;50.808;4.388;2022-10-16T03:58:49;5.78;;;2.40;;
11471;SDS011;47430;50.808;4.388;2022-10-16T04:01:15;2.65;;;2.00;;
11471;SDS011;47430;50.808;4.388;2022-10-16T04:03:41;5.10;;;2.70;;
11471;SDS011;47430;50.808;4.388;2022-10-16T04:06:07;2.90;;;2.10;;
11471;SDS011;47430;50.808;4.388;2022-10-16T04:08:34;2.80;;;1.90;;
11471;SDS011;47430;50.808;4.388;2022-10-16T04:11:01;4.85;;;2.38;;
11471;SDS011;47430;50.808;4.388;2022-10-16T04:13:27;4.68;;;2.05;;
11471;SDS011;47430;50.808;4.388;2022-10-16T04:15:53;4.40;;;1.90;;
11471;SDS011;47430;50.808;4.388;2022-10-16T04:18:19;4.28;;;1.75;;
11471;SDS011;47430;50.808;4.388;2022-10-16T04:20:45;3.50;;;2.05;;
11471;SDS011;47430;50.808;4.388;2022-10-16T04:23:11;3.83;;;1.80;;
11471;SDS011;47430;50.808;4.388;2022-10-16T04:25:37;4.47;;;1.90;;
11471;SDS011;47430;50.808;4.388;2022-10-16T04:28:03;5.57;;;2.15;;
11471;SDS011;47430;50.808;4.388;2022-10-16T04:30:30;2.22;;;1.75;;
11471;SDS011;47430;50.808;4.388;2022-10-16T04:32:56;3.58;;;2.22;;
11471;SDS011;47430;50.808;4.388;2022-10-16T04:35:22;5.53;;;1.75;;
11471;SDS011;47430;50.808;4.388;2022-10-16T04:37:48;1.85;;;1.73;;
11471;SDS011;47430;50.808;4.388;2022-10-16T04:40:15;4.20;;;3.45;;
11471;SDS011;47430;50.808;4.388;2022-10-16T04:42:41;2.50;;;1.88;;
11471;SDS011;47430;50.808;4.388;2022-10-16T04:45:07;9.48;;;2.60;;
11471;SDS011;47430;50.808;4.388;2022-10-16T04:47:33;5.13;;;2.17;;
11471;SDS011;47430;50.808;4.388;2022-10-16T04:49:59;2.70;;;2.15;;
11471;SDS011;47430;50.808;4.388;2022-10-16T04:52:27;4.85;;;2.20;;
11471;SDS011;47430;50.808;4.388;2022-10-16T04:54:53;3.08;;;2.13;;
11471;SDS011;47430;50.808;4.388;2022-10-16T04:57:21;3.22;;;2.13;;
11471;SDS011;47430;50.808;4.388;2022-10-16T04:59:47;7.28;;;2.25;;
11471;SDS011;47430;50.808;4.388;2022-10-16T05:02:13;4.53;;;1.90;;
11471;SDS011;47430;50.808;4.388;2022-10-16T05:04:39;3.45;;;2.10;;
11471;SDS011;47430;50.808;4.388;2022-10-16T05:07:05;6.55;;;2.35;;
11471;SDS011;47430;50.808;4.388;2022-10-16T05:09:31;4.60;;;2.15;;
11471;SDS011;47430;50.808;4.388;2022-10-16T05:11:57;3.45;;;2.13;;
11471;SDS011;47430;50.808;4.388;2022-10-16T05:14:23;5.10;;;2.08;;
11471;SDS011;47430;50.808;4.388;2022-10-16T05:16:49;3.53;;;2.20;;
11471;SDS011;47430;50.808;4.388;2022-10-16T05:19:16;3.05;;;2.10;;
11471;SDS011;47430;50.808;4.388;2022-10-16T05:21:42;6.03;;;2.47;;
11471;SDS011;47430;50.808;4.388;2022-10-16T05:24:08;3.03;;;1.95;;
11471;SDS011;47430;50.808;4.388;2022-10-16T05:26:35;4.47;;;2.50;;
11471;SDS011;47430;50.808;4.388;2022-10-16T05:29:01;2.65;;;2.03;;
11471;SDS011;47430;50.808;4.388;2022-10-16T05:31:28;4.03;;;2.45;;
11471;SDS011;47430;50.808;4.388;2022-10-16T05:33:57;2.60;;;1.98;;
11471;SDS011;47430;50.808;4.388;2022-10-16T05:36:24;2.95;;;2.10;;
11471;SDS011;47430;50.808;4.388;2022-10-16T05:38:50;7.28;;;2.22;;
11471;SDS011;47430;50.808;4.388;2022-10-16T05:41:16;4.82;;;2.22;;
11471;SDS011;47430;50.808;4.388;2022-10-16T05:43:49;6.57;;;2.53;;
11471;SDS011;47430;50.808;4.388;2022-10-16T05:46:16;5.03;;;1.98;;
11471;SDS011;47430;50.808;4.388;2022-10-16T05:48:42;2.67;;;2.22;;
11471;SDS011;47430;50.808;4.388;2022-10-16T05:51:09;6.07;;;2.90;;
11471;SDS011;47430;50.808;4.388;2022-10-16T05:53:35;3.70;;;2.17;;
11471;SDS011;47430;50.808;4.388;2022-10-16T05:56:02;8.27;;;2.97;;
11471;SDS011;47430;50.808;4.388;2022-10-16T05:58:29;6.50;;;2.33;;
11471;SDS011;47430;50.808;4.388;2022-10-16T06:00:57;5.75;;;2.28;;
11471;SDS011;47430;50.808;4.388;2022-10-16T06:03:23;4.03;;;2.75;;
11471;SDS011;47430;50.808;4.388;2022-10-16T06:05:49;5.65;;;2.65;;
11471;SDS011;47430;50.808;4.388;2022-10-16T06:08:16;3.05;;;2.20;;
11471;SDS011;47430;50.808;4.388;2022-10-16T06:10:42;6.00;;;2.60;;
11471;SDS011;47430;50.808;4.388;2022-10-16T06:13:09;6.35;;;3.28;;
11471;SDS011;47430;50.808;4.388;2022-10-16T06:15:35;2.28;;;2.05;;
11471;SDS011;47430;50.808;4.388;2022-10-16T06:18:01;5.72;;;2.28;;
11471;SDS011;47430;50.808;4.388;2022-10-16T06:20:27;8.75;;;2.22;;
11471;SDS011;47430;50.808;4.388;2022-10-16T06:22:53;4.18;;;2.60;;
11471;SDS011;47430;50.808;4.388;2022-10-16T06:25:19;4.60;;;2.60;;
11471;SDS011;47430;50.808;4.388;2022-10-16T06:27:45;2.65;;;2.20;;
11471;SDS011;47430;50.808;4.388;2022-10-16T06:30:11;3.35;;;2.20;;
11471;SDS011;47430;50.808;4.388;2022-10-16T06:32:37;6.80;;;2.40;;
11471;SDS011;47430;50.808;4.388;2022-10-16T06:35:03;5.57;;;2.28;;
11471;SDS011;47430;50.808;4.388;2022-10-16T06:37:29;3.67;;;1.92;;
11471;SDS011;47430;50.808;4.388;2022-10-16T06:39:57;2.42;;;1.63;;
11471;SDS011;47430;50.808;4.388;2022-10-16T06:42:25;3.63;;;1.90;;
11471;SDS011;47430;50.808;4.388;2022-10-16T06:44:51;2.60;;;1.90;;
11471;SDS011;47430;50.808;4.388;2022-10-16T06:47:17;7.00;;;2.22;;
11471;SDS011;47430;50.808;4.388;2022-10-16T06:49:43;5.00;;;2.45;;
11471;SDS011;47430;50.808;4.388;2022-10-16T06:52:09;3.13;;;2.33;;
11471;SDS011;47430;50.808;4.388;2022-10-16T06:54:35;5.15;;;2.88;;
11471;SDS011;47430;50.808;4.388;2022-10-16T06:57:01;5.43;;;2.10;;
11471;SDS011;47430;50.808;4.388;2022-10-16T06:59:28;2.58;;;1.85;;
11471;SDS011;47430;50.808;4.388;2022-10-16T07:01:54;2.92;;;2.00;;
11471;SDS011;47430;50.808;4.388;2022-10-16T07:04:20;4.10;;;1.80;;
11471;SDS011;47430;50.808;4.388;2022-10-16T07:06:46;4.97;;;2.08;;
11471;SDS011;47430;50.808;4.388;2022-10-16T07:09:12;2.20;;;1.75;;
11471;SDS011;47430;50.808;4.388;2022-10-16T07:11:39;3.33;;;1.98;;
11471;SDS011;47430;50.808;4.388;2022-10-16T07:14:09;4.60;;;2.00;;
11471;SDS011;47430;50.808;4.388;2022-10-16T07:16:38;4.45;;;2.08;;
11471;SDS011;47430;50.808;4.388;2022-10-16T07:19:04;3.90;;;2.40;;
11471;SDS011;47430;50.808;4.388;2022-10-16T07:21:31;2.38;;;2.03;;
11471;SDS011;47430;50.808;4.388;2022-10-16T07:24:00;5.75;;;2.95;;
11471;SDS011;47430;50.808;4.388;2022-10-16T07:26:27;5.43;;;2.20;;
11471;SDS011;47430;50.808;4.388;2022-10-16T07:28:55;4.13;;;2.20;;
11471;SDS011;47430;50.808;4.388;2022-10-16T07:31:21;2.17;;;1.98;;
11471;SDS011;47430;50.808;4.388;2022-10-16T07:33:48;5.95;;;1.80;;
11471;SDS011;47430;50.808;4.388;2022-10-16T07:36:15;1.70;;;1.60;;
11471;SDS011;47430;50.808;4.388;2022-10-16T07:38:42;3.63;;;1.85;;
11471;SDS011;47430;50.808;4.388;2022-10-16T07:41:09;2.42;;;2.10;;
11471;SDS011;47430;50.808;4.388;2022-10-16T07:43:35;3.00;;;2.10;;
11471;SDS011;47430;50.808;4.388;2022-10-16T07:46:01;4.20;;;1.73;;
11471;SDS011;47430;50.808;4.388;2022-10-16T07:48:28;2.42;;;2.15;;
11471;SDS011;47430;50.808;4.388;2022-10-16T07:50:58;2.83;;;1.95;;
11471;SDS011;47430;50.808;4.388;2022-10-16T07:53:25;3.30;;;2.00;;
11471;SDS011;47430;50.808;4.388;2022-10-16T07:55:51;4.72;;;1.60;;
11471;SDS011;47430;50.808;4.388;2022-10-16T07:58:17;3.97;;;2.20;;
11471;SDS011;47430;50.808;4.388;2022-10-16T08:00:43;4.55;;;2.25;;
11471;SDS011;47430;50.808;4.388;2022-10-16T08:03:09;3.60;;;1.60;;
11471;SDS011;47430;50.808;4.388;2022-10-16T08:05:35;12.38;;;4.32;;
11471;SDS011;47430;50.808;4.388;2022-10-16T08:08:01;7.65;;;1.92;;
11471;SDS011;47430;50.808;4.388;2022-10-16T08:10:27;5.40;;;1.80;;
11471;SDS011;47430;50.808;4.388;2022-10-16T08:12:54;6.10;;;2.25;;
11471;SDS011;47430;50.808;4.388;2022-10-16T08:15:20;2.72;;;1.77;;
11471;SDS011;47430;50.808;4.388;2022-10-16T08:20:42;10.27;;;2.17;;
11471;SDS011;47430;50.808;4.388;2022-10-16T08:23:11;4.80;;;2.40;;
11471;SDS011;47430;50.808;4.388;2022-10-16T08:25:38;4.50;;;2.10;;
11471;SDS011;47430;50.808;4.388;2022-10-16T08:28:05;4.85;;;2.05;;
11471;SDS011;47430;50.808;4.388;2022-10-16T08:30:32;3.83;;;1.70;;
11471;SDS011;47430;50.808;4.388;2022-10-16T08:32:58;3.38;;;1.80;;
11471;SDS011;47430;50.808;4.388;2022-10-16T08:35:24;7.35;;;2.20;;
11471;SDS011;47430;50.808;4.388;2022-10-16T08:37:50;6.85;;;1.83;;
11471;SDS011;47430;50.808;4.388;2022-10-16T08:48:08;4.82;;;1.73;;
11471;SDS011;47430;50.808;4.388;2022-10-16T08:50:38;5.00;;;1.73;;
11471;SDS011;47430;50.808;4.388;2022-10-16T08:53:04;3.40;;;2.05;;
11471;SDS011;47430;50.808;4.388;2022-10-16T08:55:33;6.60;;;2.08;;
11471;SDS011;47430;50.808;4.388;2022-10-16T08:58:00;4.40;;;1.75;;
11471;SDS011;47430;50.808;4.388;2022-10-16T09:00:27;4.78;;;2.28;;
11471;SDS011;47430;50.808;4.388;2022-10-16T09:08:30;3.20;;;1.50;;
11471;SDS011;47430;50.808;4.388;2022-10-16T09:11:07;5.13;;;1.85;;
11471;SDS011;47430;50.808;4.388;2022-10-16T09:16:18;4.55;;;1.40;;
11471;SDS011;47430;50.808;4.388;2022-10-16T09:21:46;10.73;;;1.85;;
11471;SDS011;47430;50.808;4.388;2022-10-16T09:24:16;3.72;;;1.90;;
11471;SDS011;47430;50.808;4.388;2022-10-16T09:26:43;4.80;;;1.75;;
11471;SDS011;47430;50.808;4.388;2022-10-16T09:29:13;5.85;;;1.95;;
11471;SDS011;47430;50.808;4.388;2022-10-16T09:31:40;3.65;;;1.50;;
11471;SDS011;47430;50.808;4.388;2022-10-16T09:34:08;3.70;;;1.50;;
11471;SDS011;47430;50.808;4.388;2022-10-16T09:36:40;4.80;;;1.60;;
11471;SDS011;47430;50.808;4.388;2022-10-16T09:39:08;4.85;;;1.55;;
11471;SDS011;47430;50.808;4.388;2022-10-16T09:41:37;2.78;;;1.50;;
11471;SDS011;47430;50.808;4.388;2022-10-16T09:44:05;7.50;;;1.92;;
11471;SDS011;47430;50.808;4.388;2022-10-16T09:46:39;5.05;;;1.65;;
11471;SDS011;47430;50.808;4.388;2022-10-16T09:49:17;7.75;;;1.52;;
11471;SDS011;47430;50.808;4.388;2022-10-16T09:51:44;3.75;;;1.73;;
11471;SDS011;47430;50.808;4.388;2022-10-16T09:54:14;8.40;;;1.80;;
11471;SDS011;47430;50.808;4.388;2022-10-16T09:56:41;2.17;;;1.98;;
11471;SDS011;47430;50.808;4.388;2022-10-16T10:01:37;3.28;;;1.67;;
11471;SDS011;47430;50.808;4.388;2022-10-16T10:04:04;3.30;;;1.52;;
11471;SDS011;47430;50.808;4.388;2022-10-16T10:06:52;3.80;;;1.52;;
11471;SDS011;47430;50.808;4.388;2022-10-16T10:09:30;5.20;;;1.88;;
11471;SDS011;47430;50.808;4.388;2022-10-16T10:11:58;4.00;;;1.45;;
11471;SDS011;47430;50.808;4.388;2022-10-16T10:14:30;4.50;;;1.88;;
11471;SDS011;47430;50.808;4.388;2022-10-16T10:19:37;3.83;;;1.27;;
11471;SDS011;47430;50.808;4.388;2022-10-16T10:43:41;4.70;;;1.73;;
11471;SDS011;47430;50.808;4.388;2022-10-16T10:46:17;5.75;;;1.42;;
11471;SDS011;47430;50.808;4.388;2022-10-16T10:56:42;5.15;;;1.60;;
11471;SDS011;47430;50.808;4.388;2022-10-16T11:09:53;2.08;;;0.95;;
11471;SDS011;47430;50.808;4.388;2022-10-16T11:12:23;4.63;;;1.45;;
11471;SDS011;47430;50.808;4.388;2022-10-16T11:17:31;3.20;;;1.10;;
11471;SDS011;47430;50.808;4.388;2022-10-16T11:30:05;2.53;;;0.90;;
11471;SDS011;47430;50.808;4.388;2022-10-16T11:32:34;6.43;;;1.55;;
11471;SDS011;47430;50.808;4.388;2022-10-16T11:35:21;3.70;;;1.73;;
11471;SDS011;47430;50.808;4.388;2022-10-16T11:37:48;7.28;;;1.50;;
11471;SDS011;47430;50.808;4.388;2022-10-16T11:42:46;6.32;;;1.10;;
11471;SDS011;47430;50.808;4.388;2022-10-16T11:48:05;3.83;;;0.95;;
11471;SDS011;47430;50.808;4.388;2022-10-16T11:53:24;6.38;;;1.30;;
11471;SDS011;47430;50.808;4.388;2022-10-16T11:55:54;1.23;;;0.93;;
11471;SDS011;47430;50.808;4.388;2022-10-16T12:03:34;1.88;;;0.80;;
11471;SDS011;47430;50.808;4.388;2022-10-16T12:08:48;2.08;;;1.00;;
11471;SDS011;47430;50.808;4.388;2022-10-16T12:11:31;1.90;;;1.02;;
11471;SDS011;47430;50.808;4.388;2022-10-16T12:14:07;3.55;;;1.02;;
11471;SDS011;47430;50.808;4.388;2022-10-16T12:16:53;2.53;;;1.10;;
11471;SDS011;47430;50.808;4.388;2022-10-16T12:19:20;2.00;;;0.90;;
11471;SDS011;47430;50.808;4.388;2022-10-16T12:21:47;4.13;;;1.25;;
11471;SDS011;47430;50.808;4.388;2022-10-16T12:24:29;1.30;;;1.00;;
11471;SDS011;47430;50.808;4.388;2022-10-16T12:26:56;6.57;;;1.13;;
11471;SDS011;47430;50.808;4.388;2022-10-16T12:29:33;3.30;;;1.17;;
11471;SDS011;47430;50.808;4.388;2022-10-16T12:31:59;1.80;;;1.02;;
11471;SDS011;47430;50.808;4.388;2022-10-16T12:34:30;2.10;;;0.90;;
11471;SDS011;47430;50.808;4.388;2022-10-16T12:37:07;5.20;;;1.20;;
11471;SDS011;47430;50.808;4.388;2022-10-16T12:39:34;4.88;;;1.63;;
11471;SDS011;47430;50.808;4.388;2022-10-16T12:42:05;2.58;;;1.00;;
11471;SDS011;47430;50.808;4.388;2022-10-16T12:44:32;3.13;;;1.00;;
11471;SDS011;47430;50.808;4.388;2022-10-16T12:46:59;2.22;;;0.98;;
11471;SDS011;47430;50.808;4.388;2022-10-16T12:49:35;2.15;;;1.20;;
11471;SDS011;47430;50.808;4.388;2022-10-16T12:52:02;2.05;;;1.27;;
11471;SDS011;47430;50.808;4.388;2022-10-16T12:54:30;1.38;;;0.95;;
11471;SDS011;47430;50.808;4.388;2022-10-16T13:02:39;5.70;;;1.15;;
11471;SDS011;47430;50.808;4.388;2022-10-16T13:10:25;2.60;;;1.10;;
11471;SDS011;47430;50.808;4.388;2022-10-16T13:15:45;5.60;;;1.10;;
11471;SDS011;47430;50.808;4.388;2022-10-16T13:18:22;3.65;;;1.27;;
11471;SDS011;47430;50.808;4.388;2022-10-16T13:23:34;8.57;;;1.80;;
11471;SDS011;47430;50.808;4.388;2022-10-16T13:28:31;3.28;;;1.38;;
11471;SDS011;47430;50.808;4.388;2022-10-16T13:30:58;3.28;;;1.38;;
11471;SDS011;47430;50.808;4.388;2022-10-16T13:35:54;3.10;;;1.25;;
11471;SDS011;47430;50.808;4.388;2022-10-16T13:38:22;4.60;;;1.50;;
11471;SDS011;47430;50.808;4.388;2022-10-16T13:40:49;7.40;;;1.35;;
11471;SDS011;47430;50.808;4.388;2022-10-16T13:43:17;5.43;;;1.17;;
11471;SDS011;47430;50.808;4.388;2022-10-16T13:45:52;4.43;;;1.83;;
11471;SDS011;47430;50.808;4.388;2022-10-16T13:48:18;4.35;;;1.30;;
11471;SDS011;47430;50.808;4.388;2022-10-16T13:50:44;1.85;;;1.10;;
11471;SDS011;47430;50.808;4.388;2022-10-16T13:53:13;5.15;;;1.30;;
11471;SDS011;47430;50.808;4.388;2022-10-16T13:55:39;4.88;;;1.15;;
11471;SDS011;47430;50.808;4.388;2022-10-16T13:58:12;6.28;;;1.60;;
11471;SDS011;47430;50.808;4.388;2022-10-16T14:00:38;2.35;;;1.25;;
11471;SDS011;47430;50.808;4.388;2022-10-16T14:03:06;2.25;;;1.00;;
11471;SDS011;47430;50.808;4.388;2022-10-16T14:05:33;6.07;;;1.27;;
11471;SDS011;47430;50.808;4.388;2022-10-16T14:07:59;3.83;;;1.25;;
11471;SDS011;47430;50.808;4.388;2022-10-16T14:10:26;5.32;;;1.23;;
11471;SDS011;47430;50.808;4.388;2022-10-16T14:12:54;5.90;;;1.70;;
11471;SDS011;47430;50.808;4.388;2022-10-16T14:15:20;3.13;;;1.20;;
11471;SDS011;47430;50.808;4.388;2022-10-16T14:17:48;3.95;;;1.10;;
11471;SDS011;47430;50.808;4.388;2022-10-16T14:20:15;2.42;;;1.23;;
11471;SDS011;47430;50.808;4.388;2022-10-16T14:22:42;5.22;;;1.30;;
11471;SDS011;47430;50.808;4.388;2022-10-16T14:30:52;2.72;;;1.42;;
11471;SDS011;47430;50.808;4.388;2022-10-16T14:33:21;5.22;;;1.88;;
11471;SDS011;47430;50.808;4.388;2022-10-16T14:35:56;3.53;;;1.02;;
11471;SDS011;47430;50.808;4.388;2022-10-16T14:38:23;2.47;;;1.05;;
11471;SDS011;47430;50.808;4.388;2022-10-16T14:40:50;4.78;;;1.25;;
11471;SDS011;47430;50.808;4.388;2022-10-16T14:43:26;6.10;;;1.60;;
11471;SDS011;47430;50.808;4.388;2022-10-16T14:45:54;6.65;;;1.75;;
11471;SDS011;47430;50.808;4.388;2022-10-16T14:48:21;5.18;;;1.60;;
11471;SDS011;47430;50.808;4.388;2022-10-16T14:50:47;5.45;;;2.13;;
11471;SDS011;47430;50.808;4.388;2022-10-16T14:53:13;6.97;;;1.48;;
11471;SDS011;47430;50.808;4.388;2022-10-16T14:55:40;4.80;;;1.92;;
11471;SDS011;47430;50.808;4.388;2022-10-16T14:58:24;4.53;;;1.40;;
11471;SDS011;47430;50.808;4.388;2022-10-16T15:00:51;3.85;;;1.58;;
11471;SDS011;47430;50.808;4.388;2022-10-16T15:03:17;3.58;;;1.20;;
11471;SDS011;47430;50.808;4.388;2022-10-16T15:05:43;4.63;;;1.40;;
11471;SDS011;47430;50.808;4.388;2022-10-16T15:08:09;11.40;;;2.25;;
11471;SDS011;47430;50.808;4.388;2022-10-16T15:10:38;9.35;;;1.95;;
11471;SDS011;47430;50.808;4.388;2022-10-16T15:13:04;8.25;;;1.83;;
11471;SDS011;47430;50.808;4.388;2022-10-16T15:15:51;4.60;;;1.40;;
11471;SDS011;47430;50.808;4.388;2022-10-16T15:18:16;3.28;;;1.55;;
11471;SDS011;47430;50.808;4.388;2022-10-16T15:20:47;5.07;;;1.60;;
11471;SDS011;47430;50.808;4.388;2022-10-16T15:23:14;5.93;;;1.75;;
11471;SDS011;47430;50.808;4.388;2022-10-16T15:25:48;6.18;;;1.75;;
11471;SDS011;47430;50.808;4.388;2022-10-16T15:28:14;6.45;;;1.58;;
11471;SDS011;47430;50.808;4.388;2022-10-16T15:30:41;5.03;;;1.70;;
11471;SDS011;47430;50.808;4.388;2022-10-16T15:36:00;3.25;;;1.83;;
11471;SDS011;47430;50.808;4.388;2022-10-16T15:38:27;3.63;;;1.95;;
11471;SDS011;47430;50.808;4.388;2022-10-16T15:40:53;5.80;;;1.70;;
11471;SDS011;47430;50.808;4.388;2022-10-16T15:43:19;9.25;;;2.30;;
11471;SDS011;47430;50.808;4.388;2022-10-16T15:46:04;9.65;;;2.40;;
11471;SDS011;47430;50.808;4.388;2022-10-16T15:48:31;8.63;;;2.03;;
11471;SDS011;47430;50.808;4.388;2022-10-16T15:50:57;4.28;;;2.03;;
11471;SDS011;47430;50.808;4.388;2022-10-16T15:53:23;4.78;;;1.60;;
11471;SDS011;47430;50.808;4.388;2022-10-16T15:55:49;2.95;;;1.90;;
11471;SDS011;47430;50.808;4.388;2022-10-16T15:58:16;8.40;;;2.10;;
11471;SDS011;47430;50.808;4.388;2022-10-16T16:00:41;4.70;;;1.85;;
11471;SDS011;47430;50.808;4.388;2022-10-16T16:03:08;5.55;;;2.30;;
11471;SDS011;47430;50.808;4.388;2022-10-16T16:05:37;4.95;;;2.15;;
11471;SDS011;47430;50.808;4.388;2022-10-16T16:08:03;7.43;;;2.10;;
11471;SDS011;47430;50.808;4.388;2022-10-16T16:10:29;8.70;;;2.00;;
11471;SDS011;47430;50.808;4.388;2022-10-16T16:12:55;6.95;;;1.75;;
11471;SDS011;47430;50.808;4.388;2022-10-16T16:15:22;3.03;;;1.50;;
11471;SDS011;47430;50.808;4.388;2022-10-16T16:17:48;4.30;;;2.55;;
11471;SDS011;47430;50.808;4.388;2022-10-16T16:20:14;3.92;;;2.20;;
11471;SDS011;47430;50.808;4.388;2022-10-16T16:22:40;8.25;;;2.63;;
11471;SDS011;47430;50.808;4.388;2022-10-16T16:25:07;9.35;;;2.42;;
11471;SDS011;47430;50.808;4.388;2022-10-16T16:27:33;2.97;;;2.10;;
11471;SDS011;47430;50.808;4.388;2022-10-16T16:29:59;8.68;;;2.38;;
11471;SDS011;47430;50.808;4.388;2022-10-16T16:32:26;5.28;;;2.42;;
11471;SDS011;47430;50.808;4.388;2022-10-16T16:34:52;7.95;;;3.47;;
11471;SDS011;47430;50.808;4.388;2022-10-16T16:37:18;7.95;;;2.40;;
11471;SDS011;47430;50.808;4.388;2022-10-16T16:39:44;6.63;;;2.58;;
11471;SDS011;47430;50.808;4.388;2022-10-16T16:42:10;13.88;;;2.67;;
11471;SDS011;47430;50.808;4.388;2022-10-16T16:44:36;10.80;;;3.22;;
11471;SDS011;47430;50.808;4.388;2022-10-16T16:47:03;9.45;;;3.60;;
11471;SDS011;47430;50.808;4.388;2022-10-16T16:49:29;9.15;;;3.60;;
11471;SDS011;47430;50.808;4.388;2022-10-16T16:51:55;6.13;;;3.28;;
11471;SDS011;47430;50.808;4.388;2022-10-16T16:54:21;11.02;;;3.30;;
11471;SDS011;47430;50.808;4.388;2022-10-16T16:56:47;6.07;;;2.70;;
11471;SDS011;47430;50.808;4.388;2022-10-16T16:59:14;9.13;;;3.05;;
11471;SDS011;47430;50.808;4.388;2022-10-16T17:01:40;4.20;;;2.42;;
11471;SDS011;47430;50.808;4.388;2022-10-16T17:04:07;6.35;;;2.72;;
11471;SDS011;47430;50.808;4.388;2022-10-16T17:06:33;5.30;;;2.30;;
11471;SDS011;47430;50.808;4.388;2022-10-16T17:09:00;5.72;;;2.50;;
11471;SDS011;47430;50.808;4.388;2022-10-16T17:11:27;5.75;;;2.63;;